createdAt,value
2023-02-15T00:00:53.548Z,1.37
2023-02-15T00:06:02.982Z,1.36
2023-02-15T00:11:11.030Z,1.28
2023-02-15T00:16:19.619Z,1.49
2023-02-15T00:21:28.143Z,1.40
2023-02-15T00:26:36.770Z,1.30
2023-02-15T00:31:45.854Z,1.47
2023-02-15T00:36:54.561Z,1.57
2023-02-15T00:42:03.048Z,1.41
2023-02-15T00:47:12.229Z,1.41
2023-02-15T00:52:20.955Z,1.47
2023-02-15T00:57:29.792Z,1.20
2023-02-15T01:02:38.499Z,1.25
2023-02-15T01:07:47.352Z,2.12
2023-02-15T01:12:56.042Z,1.97
2023-02-15T01:18:04.789Z,1.66
2023-02-15T01:23:13.336Z,1.49
2023-02-15T01:28:22.682Z,1.62
2023-02-15T01:33:31.747Z,1.51
2023-02-15T01:38:40.905Z,1.37
2023-02-15T01:43:49.859Z,1.41
2023-02-15T01:48:58.756Z,1.55
2023-02-15T01:54:07.055Z,1.64
2023-02-15T01:59:17.456Z,1.81
2023-02-15T02:04:15.753Z,1.85
2023-02-15T02:09:24.791Z,1.73
2023-02-15T02:14:33.885Z,1.64
2023-02-15T02:19:42.934Z,1.78
2023-02-15T02:24:51.492Z,1.63
2023-02-15T02:30:00.720Z,1.77
2023-02-15T02:35:09.097Z,1.91
2023-02-15T02:40:18.171Z,1.75
2023-02-15T02:45:26.867Z,1.92
2023-02-15T02:50:36.093Z,1.70
2023-02-15T02:55:44.612Z,1.80
2023-02-15T03:00:53.543Z,1.85
2023-02-15T03:06:02.513Z,1.54
2023-02-15T03:11:10.761Z,1.66
2023-02-15T03:16:19.557Z,1.44
2023-02-15T03:21:28.900Z,1.69
2023-02-15T03:26:37.414Z,1.66
2023-02-15T03:31:47.022Z,1.48
2023-02-15T03:36:55.708Z,1.54
2023-02-15T03:42:07.808Z,1.65
2023-02-15T03:47:06.887Z,1.49
2023-02-15T03:52:15.802Z,1.62
2023-02-15T03:57:25.178Z,1.58
2023-02-15T04:02:34.490Z,1.76
2023-02-15T04:07:43.157Z,1.63
2023-02-15T04:12:52.797Z,1.94
2023-02-15T04:18:02.212Z,1.97
2023-02-15T04:23:11.354Z,2.23
2023-02-15T04:28:23.140Z,2.18
2023-02-15T04:33:22.260Z,2.13
2023-02-15T04:38:31.981Z,2.46
2023-02-15T04:43:41.151Z,2.19
2023-02-15T04:48:49.848Z,2.19
2023-02-15T04:53:58.638Z,2.10
2023-02-15T04:59:06.934Z,2.08
2023-02-15T05:04:16.202Z,1.93
2023-02-15T05:09:25.208Z,1.64
2023-02-15T05:14:35.019Z,1.63
2023-02-15T05:19:43.548Z,1.49
2023-02-15T05:24:52.264Z,1.39
2023-02-15T05:30:01.063Z,1.46
2023-02-15T05:35:09.809Z,1.57
2023-02-15T05:40:18.486Z,1.43
2023-02-15T05:45:27.268Z,1.59
2023-02-15T05:50:36.218Z,1.36
2023-02-15T05:55:45.962Z,1.62
2023-02-15T06:00:54.808Z,1.57
2023-02-15T06:06:04.440Z,1.40
2023-02-15T06:11:12.848Z,1.49
2023-02-15T06:16:22.253Z,1.61
2023-02-15T06:21:31.574Z,1.48
2023-02-15T06:26:41.691Z,1.55
2023-02-15T06:31:40.052Z,1.68
2023-02-15T06:36:48.552Z,1.73
2023-02-15T06:41:57.864Z,1.75
2023-02-15T06:47:07.724Z,1.79
2023-02-15T06:52:16.243Z,1.78
2023-02-15T06:57:24.949Z,1.75
2023-02-15T07:02:34.626Z,1.64
2023-02-15T07:07:43.580Z,1.56
2023-02-15T07:12:52.095Z,1.46
2023-02-15T07:18:01.105Z,1.56
2023-02-15T07:23:09.512Z,1.60
2023-02-15T07:28:18.507Z,1.65
2023-02-15T07:33:27.471Z,1.60
2023-02-15T07:38:36.905Z,1.69
2023-02-15T07:43:46.031Z,1.65
2023-02-15T07:48:54.990Z,1.73
2023-02-15T07:54:04.600Z,1.69
2023-02-15T07:59:14.048Z,1.72
2023-02-15T08:04:22.688Z,1.89
2023-02-15T08:09:31.725Z,1.75
2023-02-15T08:14:40.430Z,1.79
2023-02-15T08:19:49.716Z,1.72
2023-02-15T08:24:58.048Z,1.67
2023-02-15T08:30:07.362Z,1.70
2023-02-15T08:35:15.751Z,1.89
2023-02-15T08:40:24.586Z,2.02
2023-02-15T08:45:33.021Z,2.16
2023-02-15T08:50:41.975Z,2.77
2023-02-15T08:55:50.345Z,2.42
2023-02-15T09:01:00.331Z,2.11
2023-02-15T09:06:08.246Z,1.90
2023-02-15T09:11:17.186Z,1.89
2023-02-15T09:16:25.579Z,2.13
2023-02-15T09:21:34.628Z,1.86
2023-02-15T09:26:42.805Z,1.87
2023-02-15T09:31:51.742Z,1.84
2023-02-15T09:36:59.999Z,1.85
2023-02-15T09:42:08.545Z,2.09
2023-02-15T09:47:17.128Z,2.05
2023-02-15T09:52:26.297Z,2.00
2023-02-15T09:57:35.139Z,1.88
2023-02-15T10:02:43.743Z,2.11
2023-02-15T10:07:52.391Z,1.91
2023-02-15T10:13:01.538Z,1.78
2023-02-15T10:18:10.186Z,1.86
2023-02-15T10:23:20.277Z,1.78
2023-02-15T10:28:18.330Z,1.97
2023-02-15T10:33:28.058Z,2.14
2023-02-15T10:38:36.760Z,1.95
2023-02-15T10:43:45.781Z,1.81
2023-02-15T10:48:54.336Z,2.28
2023-02-15T10:54:02.906Z,1.79
2023-02-15T10:59:11.288Z,1.84
2023-02-15T11:04:20.320Z,1.80
2023-02-15T11:09:28.717Z,1.95
2023-02-15T11:14:37.547Z,2.13
2023-02-15T11:19:45.904Z,2.20
2023-02-15T11:24:55.858Z,2.15
2023-02-15T11:30:04.463Z,2.57
2023-02-15T11:35:13.444Z,2.43
2023-02-15T11:40:22.116Z,2.12
2023-02-15T11:45:31.416Z,2.01
2023-02-15T11:50:39.824Z,2.25
2023-02-15T11:55:48.491Z,1.99
2023-02-15T12:00:57.014Z,1.97
2023-02-15T12:06:06.362Z,1.93
2023-02-15T12:11:14.871Z,2.26
2023-02-15T12:16:23.575Z,2.08
2023-02-15T12:21:31.903Z,2.47
2023-02-15T12:26:40.638Z,2.77
2023-02-15T12:31:49.812Z,3.01
2023-02-15T12:36:59.252Z,3.30
2023-02-15T12:42:07.565Z,2.43
2023-02-15T12:47:16.816Z,2.28
2023-02-15T12:52:25.482Z,1.86
2023-02-15T12:57:34.542Z,2.28
2023-02-15T13:02:43.219Z,2.05
2023-02-15T13:07:51.671Z,1.88
2023-02-15T13:13:00.448Z,1.79
2023-02-15T13:18:10.037Z,1.95
2023-02-15T13:23:18.214Z,1.78
2023-02-15T13:28:27.626Z,2.03
2023-02-15T13:33:36.453Z,1.90
2023-02-15T13:38:44.708Z,1.83
2023-02-15T13:43:53.088Z,1.82
2023-02-15T13:49:02.166Z,1.85
2023-02-15T13:54:10.456Z,1.84
2023-02-15T13:59:19.342Z,1.90
2023-02-15T14:04:27.652Z,3.14
2023-02-15T14:09:37.654Z,3.70
2023-02-15T14:14:36.363Z,6.22
2023-02-15T14:19:45.206Z,3.26
2023-02-15T14:24:53.998Z,3.27
2023-02-15T14:30:03.548Z,1.76
2023-02-15T14:35:11.757Z,1.95
2023-02-15T14:40:20.798Z,2.05
2023-02-15T14:45:31.989Z,1.96
2023-02-15T14:50:38.011Z,1.75
2023-02-15T14:55:46.571Z,1.86
2023-02-15T15:00:55.195Z,1.71
2023-02-15T15:06:05.713Z,1.72
2023-02-15T15:11:12.355Z,1.65
2023-02-15T15:16:21.162Z,1.72
2023-02-15T15:21:30.706Z,1.64
2023-02-15T15:26:39.150Z,1.96
2023-02-15T15:31:48.102Z,1.77
2023-02-15T15:36:56.927Z,1.78
2023-02-15T15:42:06.240Z,1.93
2023-02-15T15:47:14.428Z,2.00
2023-02-15T15:52:24.375Z,2.01
2023-02-15T15:57:33.029Z,2.15
2023-02-15T16:02:42.193Z,2.23
2023-02-15T16:07:50.954Z,1.94
2023-02-15T16:12:59.271Z,1.87
2023-02-15T16:18:07.885Z,1.86
2023-02-15T16:23:16.895Z,1.63
2023-02-15T16:28:25.776Z,1.68
2023-02-15T16:33:35.633Z,1.78
2023-02-15T16:38:44.330Z,1.75
2023-02-15T16:43:53.374Z,1.73
2023-02-15T16:49:02.052Z,1.86
2023-02-15T16:54:11.109Z,1.55
2023-02-15T16:59:19.769Z,1.57
2023-02-15T17:04:29.432Z,1.59
2023-02-15T17:09:38.341Z,1.91
2023-02-15T17:14:47.086Z,1.84
2023-02-15T17:19:55.513Z,1.75
2023-02-15T17:25:05.428Z,1.89
2023-02-15T17:30:14.783Z,1.86
2023-02-15T17:35:23.843Z,2.08
2023-02-15T17:40:33.092Z,1.79
2023-02-15T17:45:42.674Z,1.97
2023-02-15T17:50:52.348Z,2.18
2023-02-15T17:56:02.259Z,2.19
2023-02-15T18:01:12.971Z,2.14
2023-02-15T18:06:13.292Z,2.27
2023-02-15T18:11:12.909Z,2.02
2023-02-15T18:16:22.652Z,2.32
2023-02-15T18:21:31.941Z,2.48
2023-02-15T18:26:41.500Z,2.29
2023-02-15T18:31:44.597Z,2.14
2023-02-15T18:36:56.070Z,2.20
2023-02-15T18:41:54.929Z,2.22
2023-02-15T18:47:03.961Z,2.15
2023-02-15T18:52:15.005Z,2.07
2023-02-15T18:57:15.067Z,1.97
2023-02-15T19:02:16.439Z,2.16
2023-02-15T19:07:18.144Z,2.61
2023-02-15T19:12:17.644Z,3.33
2023-02-15T19:17:27.130Z,4.68
2023-02-15T19:22:36.034Z,6.49
2023-02-15T19:27:45.134Z,7.08
2023-02-15T19:32:54.416Z,8.06
2023-02-15T19:38:03.668Z,9.05
2023-02-15T19:43:12.167Z,9.20
2023-02-15T19:48:21.398Z,9.31
2023-02-15T19:53:30.016Z,9.42
2023-02-15T19:58:38.892Z,8.58
2023-02-15T20:03:47.385Z,7.59
2023-02-15T20:08:57.145Z,4.08
2023-02-15T20:14:05.777Z,5.76
2023-02-15T20:19:14.976Z,8.67
2023-02-15T20:24:23.704Z,6.06
2023-02-15T20:29:32.552Z,4.69
2023-02-15T20:34:41.690Z,4.76
2023-02-15T20:39:50.448Z,3.97
2023-02-15T20:44:58.954Z,3.59
2023-02-15T20:50:07.773Z,3.38
2023-02-15T20:55:16.417Z,3.92
2023-02-15T21:00:25.420Z,3.60
2023-02-15T21:05:33.993Z,3.83
2023-02-15T21:10:42.806Z,3.82
2023-02-15T21:15:51.357Z,3.75
2023-02-15T21:21:00.040Z,4.21
2023-02-15T21:26:08.626Z,4.45
2023-02-15T21:31:17.634Z,4.28
2023-02-15T21:36:25.887Z,4.21
2023-02-15T21:41:35.027Z,4.44
2023-02-15T21:46:43.239Z,4.32
2023-02-15T21:51:52.154Z,4.33
2023-02-15T21:57:00.385Z,4.42
2023-02-15T22:02:09.325Z,4.65
2023-02-15T22:07:17.692Z,7.22
2023-02-15T22:12:26.758Z,12.46
2023-02-15T22:17:35.118Z,11.87
2023-02-15T22:22:44.035Z,11.13
2023-02-15T22:27:52.506Z,12.71
2023-02-15T22:33:01.486Z,9.82
2023-02-15T22:38:09.942Z,7.57
2023-02-15T22:43:19.274Z,7.01
2023-02-15T22:48:28.670Z,5.71
2023-02-15T22:53:38.124Z,6.36
2023-02-15T22:58:46.537Z,5.45
2023-02-15T23:03:55.428Z,5.75
2023-02-15T23:09:03.907Z,5.32
2023-02-15T23:14:14.035Z,4.91
2023-02-15T23:19:12.405Z,5.02
2023-02-15T23:24:21.248Z,4.73
2023-02-15T23:29:29.690Z,4.65
2023-02-15T23:34:38.537Z,4.93
2023-02-15T23:39:46.896Z,7.44
2023-02-15T23:44:55.808Z,7.82
2023-02-15T23:50:04.667Z,9.30
2023-02-15T23:55:13.922Z,9.78
